Terminal Aerodrome Forecast
Issued by NWS

Home | Current Version | Previous Version | Text Only | Print | Product List | Glossary On
Versions: 1 2 3 4 5 6 7 8 9 10 11 12 13 14 15
000
FTUS42 TJSJ 191140
TAFJSJ
TAF
TJSJ 191140Z 1912/2012 VRB06KT P6SM FEW030 FEW050
     FM191300 09012KT P6SM FEW030 SCT050
     FM191630 09015KT P6SM VCSH SCT030 SCT050
     FM192300 11005KT P6SM FEW030=

USA.gov is the U.S. government's official web portal to all federal, state and local government web resources and services.